sensor_id;sensor_type;location;lat;lon;timestamp;P1;durP1;ratioP1;P2;durP2;ratioP2
3050;SDS011;1535;51.098;6.414;2022-11-20T00:01:26;27.00;;;24.20;;
3050;SDS011;1535;51.098;6.414;2022-11-20T00:03:54;29.40;;;23.57;;
3050;SDS011;1535;51.098;6.414;2022-11-20T00:06:23;27.30;;;24.20;;
3050;SDS011;1535;51.098;6.414;2022-11-20T00:08:53;25.77;;;23.07;;
3050;SDS011;1535;51.098;6.414;2022-11-20T00:11:21;26.63;;;23.77;;
3050;SDS011;1535;51.098;6.414;2022-11-20T00:13:50;25.67;;;22.73;;
3050;SDS011;1535;51.098;6.414;2022-11-20T00:16:18;26.13;;;23.10;;
3050;SDS011;1535;51.098;6.414;2022-11-20T00:18:46;28.83;;;22.63;;
3050;SDS011;1535;51.098;6.414;2022-11-20T00:21:14;29.10;;;24.70;;
3050;SDS011;1535;51.098;6.414;2022-11-20T00:23:43;28.47;;;24.10;;
3050;SDS011;1535;51.098;6.414;2022-11-20T00:26:13;25.00;;;22.33;;
3050;SDS011;1535;51.098;6.414;2022-11-20T00:28:41;25.17;;;22.47;;
3050;SDS011;1535;51.098;6.414;2022-11-20T00:31:10;28.63;;;24.13;;
3050;SDS011;1535;51.098;6.414;2022-11-20T00:33:39;26.57;;;23.53;;
3050;SDS011;1535;51.098;6.414;2022-11-20T00:36:07;28.10;;;23.40;;
3050;SDS011;1535;51.098;6.414;2022-11-20T00:38:35;26.00;;;22.57;;
3050;SDS011;1535;51.098;6.414;2022-11-20T00:41:04;29.00;;;23.10;;
3050;SDS011;1535;51.098;6.414;2022-11-20T00:43:33;26.87;;;23.10;;
3050;SDS011;1535;51.098;6.414;2022-11-20T00:46:00;26.30;;;23.50;;
3050;SDS011;1535;51.098;6.414;2022-11-20T00:48:29;28.27;;;22.83;;
3050;SDS011;1535;51.098;6.414;2022-11-20T00:50:58;26.43;;;23.63;;
3050;SDS011;1535;51.098;6.414;2022-11-20T00:53:25;26.63;;;22.60;;
3050;SDS011;1535;51.098;6.414;2022-11-20T00:55:52;25.73;;;22.93;;
3050;SDS011;1535;51.098;6.414;2022-11-20T00:58:20;27.70;;;23.70;;
3050;SDS011;1535;51.098;6.414;2022-11-20T01:00:49;24.23;;;21.73;;
3050;SDS011;1535;51.098;6.414;2022-11-20T01:03:17;24.53;;;22.10;;
3050;SDS011;1535;51.098;6.414;2022-11-20T01:05:44;26.67;;;23.77;;
3050;SDS011;1535;51.098;6.414;2022-11-20T01:08:12;26.67;;;23.33;;
3050;SDS011;1535;51.098;6.414;2022-11-20T01:10:40;25.53;;;22.83;;
3050;SDS011;1535;51.098;6.414;2022-11-20T01:13:07;27.10;;;23.77;;
3050;SDS011;1535;51.098;6.414;2022-11-20T01:15:52;25.80;;;22.43;;
3050;SDS011;1535;51.098;6.414;2022-11-20T01:18:20;25.07;;;22.37;;
3050;SDS011;1535;51.098;6.414;2022-11-20T01:20:47;25.60;;;22.90;;
3050;SDS011;1535;51.098;6.414;2022-11-20T01:23:14;30.07;;;22.97;;
3050;SDS011;1535;51.098;6.414;2022-11-20T01:25:41;28.70;;;23.67;;
3050;SDS011;1535;51.098;6.414;2022-11-20T01:28:08;25.00;;;22.50;;
3050;SDS011;1535;51.098;6.414;2022-11-20T01:30:36;25.47;;;22.73;;
3050;SDS011;1535;51.098;6.414;2022-11-20T01:33:05;27.57;;;22.97;;
3050;SDS011;1535;51.098;6.414;2022-11-20T01:35:32;24.57;;;21.73;;
3050;SDS011;1535;51.098;6.414;2022-11-20T01:37:59;25.20;;;22.70;;
3050;SDS011;1535;51.098;6.414;2022-11-20T01:40:26;26.17;;;23.37;;
3050;SDS011;1535;51.098;6.414;2022-11-20T01:42:55;26.67;;;23.83;;
3050;SDS011;1535;51.098;6.414;2022-11-20T01:48:33;25.23;;;22.40;;
3050;SDS011;1535;51.098;6.414;2022-11-20T01:51:02;25.10;;;22.43;;
3050;SDS011;1535;51.098;6.414;2022-11-20T01:53:32;28.90;;;23.20;;
3050;SDS011;1535;51.098;6.414;2022-11-20T01:56:02;27.63;;;23.40;;
3050;SDS011;1535;51.098;6.414;2022-11-20T01:58:32;27.67;;;23.47;;
3050;SDS011;1535;51.098;6.414;2022-11-20T02:01:02;27.10;;;23.77;;
3050;SDS011;1535;51.098;6.414;2022-11-20T02:03:31;24.53;;;21.93;;
3050;SDS011;1535;51.098;6.414;2022-11-20T02:06:01;29.30;;;22.90;;
3050;SDS011;1535;51.098;6.414;2022-11-20T02:08:33;25.77;;;21.97;;
3050;SDS011;1535;51.098;6.414;2022-11-20T02:11:01;27.43;;;23.53;;
3050;SDS011;1535;51.098;6.414;2022-11-20T02:13:28;26.10;;;22.90;;
3050;SDS011;1535;51.098;6.414;2022-11-20T02:16:18;25.93;;;23.13;;
3050;SDS011;1535;51.098;6.414;2022-11-20T02:18:49;25.50;;;22.30;;
3050;SDS011;1535;51.098;6.414;2022-11-20T02:21:31;27.00;;;23.43;;
3050;SDS011;1535;51.098;6.414;2022-11-20T02:24:04;25.67;;;21.93;;
3050;SDS011;1535;51.098;6.414;2022-11-20T02:26:35;27.43;;;23.60;;
3050;SDS011;1535;51.098;6.414;2022-11-20T02:29:08;26.70;;;23.53;;
3050;SDS011;1535;51.098;6.414;2022-11-20T02:31:36;25.70;;;22.93;;
3050;SDS011;1535;51.098;6.414;2022-11-20T02:34:03;28.33;;;23.93;;
3050;SDS011;1535;51.098;6.414;2022-11-20T02:36:30;24.33;;;21.80;;
3050;SDS011;1535;51.098;6.414;2022-11-20T02:39:00;28.33;;;23.53;;
3050;SDS011;1535;51.098;6.414;2022-11-20T02:41:31;24.03;;;21.53;;
3050;SDS011;1535;51.098;6.414;2022-11-20T02:43:59;28.67;;;24.87;;
3050;SDS011;1535;51.098;6.414;2022-11-20T02:46:26;28.07;;;22.57;;
3050;SDS011;1535;51.098;6.414;2022-11-20T02:48:53;26.70;;;22.80;;
3050;SDS011;1535;51.098;6.414;2022-11-20T02:51:20;23.70;;;21.30;;
3050;SDS011;1535;51.098;6.414;2022-11-20T02:53:47;25.40;;;21.37;;
3050;SDS011;1535;51.098;6.414;2022-11-20T02:56:14;26.43;;;23.63;;
3050;SDS011;1535;51.098;6.414;2022-11-20T02:58:44;27.10;;;23.20;;
3050;SDS011;1535;51.098;6.414;2022-11-20T03:01:10;30.80;;;24.80;;
3050;SDS011;1535;51.098;6.414;2022-11-20T03:03:37;25.50;;;22.90;;
3050;SDS011;1535;51.098;6.414;2022-11-20T03:06:05;29.20;;;21.70;;
3050;SDS011;1535;51.098;6.414;2022-11-20T03:08:32;26.67;;;21.90;;
3050;SDS011;1535;51.098;6.414;2022-11-20T03:11:02;27.93;;;22.10;;
3050;SDS011;1535;51.098;6.414;2022-11-20T03:13:29;27.53;;;24.53;;
3050;SDS011;1535;51.098;6.414;2022-11-20T03:16:03;30.23;;;24.40;;
3050;SDS011;1535;51.098;6.414;2022-11-20T03:18:35;25.47;;;22.63;;
3050;SDS011;1535;51.098;6.414;2022-11-20T03:21:03;32.07;;;24.00;;
3050;SDS011;1535;51.098;6.414;2022-11-20T03:23:30;25.83;;;22.10;;
3050;SDS011;1535;51.098;6.414;2022-11-20T03:26:08;29.70;;;24.77;;
3050;SDS011;1535;51.098;6.414;2022-11-20T03:28:37;25.90;;;23.10;;
3050;SDS011;1535;51.098;6.414;2022-11-20T03:31:09;24.20;;;21.70;;
3050;SDS011;1535;51.098;6.414;2022-11-20T03:33:38;24.60;;;21.80;;
3050;SDS011;1535;51.098;6.414;2022-11-20T03:36:06;24.97;;;21.27;;
3050;SDS011;1535;51.098;6.414;2022-11-20T03:38:34;24.87;;;21.40;;
3050;SDS011;1535;51.098;6.414;2022-11-20T03:41:02;28.03;;;21.60;;
3050;SDS011;1535;51.098;6.414;2022-11-20T03:43:31;26.67;;;20.93;;
3050;SDS011;1535;51.098;6.414;2022-11-20T03:45:58;25.77;;;21.00;;
3050;SDS011;1535;51.098;6.414;2022-11-20T03:48:27;26.10;;;22.20;;
3050;SDS011;1535;51.098;6.414;2022-11-20T03:51:05;29.67;;;21.10;;
3050;SDS011;1535;51.098;6.414;2022-11-20T03:53:34;29.50;;;22.30;;
3050;SDS011;1535;51.098;6.414;2022-11-20T03:56:03;24.00;;;19.90;;
3050;SDS011;1535;51.098;6.414;2022-11-20T03:58:30;27.37;;;20.90;;
3050;SDS011;1535;51.098;6.414;2022-11-20T04:01:03;24.50;;;20.17;;
3050;SDS011;1535;51.098;6.414;2022-11-20T04:03:33;26.00;;;20.37;;
3050;SDS011;1535;51.098;6.414;2022-11-20T04:06:04;24.17;;;20.50;;
3050;SDS011;1535;51.098;6.414;2022-11-20T04:08:32;26.80;;;20.80;;
3050;SDS011;1535;51.098;6.414;2022-11-20T04:11:09;25.37;;;21.23;;
3050;SDS011;1535;51.098;6.414;2022-11-20T04:13:37;33.67;;;21.67;;
3050;SDS011;1535;51.098;6.414;2022-11-20T04:16:05;31.27;;;22.70;;
3050;SDS011;1535;51.098;6.414;2022-11-20T04:18:34;26.87;;;21.57;;
3050;SDS011;1535;51.098;6.414;2022-11-20T04:21:01;28.13;;;22.60;;
3050;SDS011;1535;51.098;6.414;2022-11-20T04:23:29;26.60;;;21.60;;
3050;SDS011;1535;51.098;6.414;2022-11-20T04:26:00;28.97;;;22.20;;
3050;SDS011;1535;51.098;6.414;2022-11-20T04:28:28;26.00;;;21.07;;
3050;SDS011;1535;51.098;6.414;2022-11-20T04:31:00;28.70;;;22.50;;
3050;SDS011;1535;51.098;6.414;2022-11-20T04:33:29;26.30;;;21.90;;
3050;SDS011;1535;51.098;6.414;2022-11-20T04:36:00;25.87;;;21.93;;
3050;SDS011;1535;51.098;6.414;2022-11-20T04:38:29;32.57;;;21.87;;
3050;SDS011;1535;51.098;6.414;2022-11-20T04:40:57;36.00;;;22.23;;
3050;SDS011;1535;51.098;6.414;2022-11-20T04:43:25;27.77;;;22.10;;
3050;SDS011;1535;51.098;6.414;2022-11-20T04:45:53;31.07;;;22.53;;
3050;SDS011;1535;51.098;6.414;2022-11-20T04:48:21;33.53;;;21.53;;
3050;SDS011;1535;51.098;6.414;2022-11-20T04:50:48;27.60;;;21.93;;
3050;SDS011;1535;51.098;6.414;2022-11-20T04:53:16;26.77;;;21.77;;
3050;SDS011;1535;51.098;6.414;2022-11-20T04:55:43;30.63;;;23.63;;
3050;SDS011;1535;51.098;6.414;2022-11-20T04:58:10;28.80;;;21.40;;
3050;SDS011;1535;51.098;6.414;2022-11-20T05:00:37;25.63;;;22.83;;
3050;SDS011;1535;51.098;6.414;2022-11-20T05:03:04;27.60;;;22.07;;
3050;SDS011;1535;51.098;6.414;2022-11-20T05:05:32;30.57;;;24.40;;
3050;SDS011;1535;51.098;6.414;2022-11-20T05:08:01;31.57;;;23.87;;
3050;SDS011;1535;51.098;6.414;2022-11-20T05:10:29;27.43;;;23.00;;
3050;SDS011;1535;51.098;6.414;2022-11-20T05:12:56;26.27;;;21.63;;
3050;SDS011;1535;51.098;6.414;2022-11-20T05:15:23;32.67;;;22.97;;
3050;SDS011;1535;51.098;6.414;2022-11-20T05:17:51;26.33;;;23.53;;
3050;SDS011;1535;51.098;6.414;2022-11-20T05:20:19;27.70;;;23.97;;
3050;SDS011;1535;51.098;6.414;2022-11-20T05:22:46;37.20;;;25.40;;
3050;SDS011;1535;51.098;6.414;2022-11-20T05:25:13;31.07;;;23.60;;
3050;SDS011;1535;51.098;6.414;2022-11-20T05:27:41;31.23;;;24.67;;
3050;SDS011;1535;51.098;6.414;2022-11-20T05:30:08;29.13;;;23.83;;
3050;SDS011;1535;51.098;6.414;2022-11-20T05:32:36;24.03;;;21.30;;
3050;SDS011;1535;51.098;6.414;2022-11-20T05:35:05;31.33;;;24.10;;
3050;SDS011;1535;51.098;6.414;2022-11-20T05:37:32;26.03;;;22.60;;
3050;SDS011;1535;51.098;6.414;2022-11-20T05:39:59;28.80;;;24.00;;
3050;SDS011;1535;51.098;6.414;2022-11-20T05:42:26;31.37;;;24.73;;
3050;SDS011;1535;51.098;6.414;2022-11-20T05:45:00;28.50;;;23.70;;
3050;SDS011;1535;51.098;6.414;2022-11-20T05:47:30;26.60;;;23.70;;
3050;SDS011;1535;51.098;6.414;2022-11-20T05:49:59;29.10;;;23.97;;
3050;SDS011;1535;51.098;6.414;2022-11-20T05:52:27;31.07;;;23.90;;
3050;SDS011;1535;51.098;6.414;2022-11-20T05:54:55;27.30;;;23.47;;
3050;SDS011;1535;51.098;6.414;2022-11-20T05:57:22;29.00;;;23.83;;
3050;SDS011;1535;51.098;6.414;2022-11-20T05:59:49;29.27;;;22.63;;
3050;SDS011;1535;51.098;6.414;2022-11-20T06:02:17;26.10;;;22.23;;
3050;SDS011;1535;51.098;6.414;2022-11-20T06:04:45;27.43;;;23.20;;
3050;SDS011;1535;51.098;6.414;2022-11-20T06:07:12;33.53;;;24.37;;
3050;SDS011;1535;51.098;6.414;2022-11-20T06:09:39;27.60;;;23.10;;
3050;SDS011;1535;51.098;6.414;2022-11-20T06:12:06;29.37;;;22.80;;
3050;SDS011;1535;51.098;6.414;2022-11-20T06:14:33;28.17;;;22.07;;
3050;SDS011;1535;51.098;6.414;2022-11-20T06:17:01;26.17;;;23.30;;
3050;SDS011;1535;51.098;6.414;2022-11-20T06:19:30;27.60;;;23.03;;
3050;SDS011;1535;51.098;6.414;2022-11-20T06:21:57;34.53;;;24.10;;
3050;SDS011;1535;51.098;6.414;2022-11-20T06:24:23;30.60;;;24.43;;
3050;SDS011;1535;51.098;6.414;2022-11-20T06:26:51;29.27;;;24.17;;
3050;SDS011;1535;51.098;6.414;2022-11-20T06:29:18;27.30;;;22.10;;
3050;SDS011;1535;51.098;6.414;2022-11-20T06:31:46;28.30;;;24.13;;
3050;SDS011;1535;51.098;6.414;2022-11-20T06:34:13;28.63;;;23.30;;
3050;SDS011;1535;51.098;6.414;2022-11-20T06:36:42;30.37;;;24.77;;
3050;SDS011;1535;51.098;6.414;2022-11-20T06:39:08;29.80;;;24.47;;
3050;SDS011;1535;51.098;6.414;2022-11-20T06:41:36;27.40;;;22.17;;
3050;SDS011;1535;51.098;6.414;2022-11-20T06:44:03;28.80;;;23.37;;
3050;SDS011;1535;51.098;6.414;2022-11-20T06:46:30;29.83;;;23.37;;
3050;SDS011;1535;51.098;6.414;2022-11-20T06:48:57;30.13;;;22.80;;
3050;SDS011;1535;51.098;6.414;2022-11-20T06:51:24;28.10;;;22.47;;
3050;SDS011;1535;51.098;6.414;2022-11-20T06:53:52;26.47;;;23.20;;
3050;SDS011;1535;51.098;6.414;2022-11-20T06:56:19;28.90;;;23.30;;
3050;SDS011;1535;51.098;6.414;2022-11-20T06:58:46;27.30;;;23.37;;
3050;SDS011;1535;51.098;6.414;2022-11-20T07:01:13;32.13;;;22.70;;
3050;SDS011;1535;51.098;6.414;2022-11-20T07:03:41;31.70;;;23.90;;
3050;SDS011;1535;51.098;6.414;2022-11-20T07:06:08;30.17;;;22.83;;
3050;SDS011;1535;51.098;6.414;2022-11-20T07:08:35;32.90;;;23.13;;
3050;SDS011;1535;51.098;6.414;2022-11-20T07:11:04;28.43;;;23.53;;
3050;SDS011;1535;51.098;6.414;2022-11-20T07:13:33;29.20;;;22.67;;
3050;SDS011;1535;51.098;6.414;2022-11-20T07:16:00;35.30;;;25.83;;
3050;SDS011;1535;51.098;6.414;2022-11-20T07:18:28;29.57;;;23.70;;
3050;SDS011;1535;51.098;6.414;2022-11-20T07:20:55;28.43;;;23.47;;
3050;SDS011;1535;51.098;6.414;2022-11-20T07:23:22;30.73;;;24.40;;
3050;SDS011;1535;51.098;6.414;2022-11-20T07:25:49;28.90;;;24.27;;
3050;SDS011;1535;51.098;6.414;2022-11-20T07:28:17;28.07;;;23.67;;
3050;SDS011;1535;51.098;6.414;2022-11-20T07:30:48;29.47;;;22.80;;
3050;SDS011;1535;51.098;6.414;2022-11-20T07:33:16;29.07;;;23.83;;
3050;SDS011;1535;51.098;6.414;2022-11-20T07:35:43;29.07;;;23.60;;
3050;SDS011;1535;51.098;6.414;2022-11-20T07:38:10;30.37;;;23.60;;
3050;SDS011;1535;51.098;6.414;2022-11-20T07:40:37;27.57;;;22.13;;
3050;SDS011;1535;51.098;6.414;2022-11-20T07:43:03;29.67;;;24.33;;
3050;SDS011;1535;51.098;6.414;2022-11-20T07:45:32;28.57;;;23.47;;
3050;SDS011;1535;51.098;6.414;2022-11-20T07:47:59;29.67;;;23.60;;
3050;SDS011;1535;51.098;6.414;2022-11-20T07:50:26;31.00;;;22.30;;
3050;SDS011;1535;51.098;6.414;2022-11-20T07:52:59;38.40;;;24.67;;
3050;SDS011;1535;51.098;6.414;2022-11-20T07:55:26;40.17;;;26.20;;
3050;SDS011;1535;51.098;6.414;2022-11-20T07:57:54;35.20;;;25.60;;
3050;SDS011;1535;51.098;6.414;2022-11-20T08:00:21;33.47;;;25.37;;
3050;SDS011;1535;51.098;6.414;2022-11-20T08:02:50;37.43;;;25.17;;
3050;SDS011;1535;51.098;6.414;2022-11-20T08:05:17;32.57;;;24.40;;
3050;SDS011;1535;51.098;6.414;2022-11-20T08:07:43;48.20;;;28.90;;
3050;SDS011;1535;51.098;6.414;2022-11-20T08:10:11;58.30;;;29.10;;
3050;SDS011;1535;51.098;6.414;2022-11-20T08:12:43;52.93;;;28.00;;
3050;SDS011;1535;51.098;6.414;2022-11-20T08:15:28;48.67;;;27.67;;
3050;SDS011;1535;51.098;6.414;2022-11-20T08:18:00;57.47;;;28.83;;
3050;SDS011;1535;51.098;6.414;2022-11-20T08:20:28;48.37;;;27.47;;
3050;SDS011;1535;51.098;6.414;2022-11-20T08:22:58;54.20;;;27.73;;
3050;SDS011;1535;51.098;6.414;2022-11-20T08:25:27;53.37;;;27.57;;
3050;SDS011;1535;51.098;6.414;2022-11-20T08:27:57;63.93;;;27.10;;
3050;SDS011;1535;51.098;6.414;2022-11-20T08:30:24;60.00;;;28.57;;
3050;SDS011;1535;51.098;6.414;2022-11-20T08:32:51;50.80;;;28.70;;
3050;SDS011;1535;51.098;6.414;2022-11-20T08:35:19;49.93;;;28.43;;
3050;SDS011;1535;51.098;6.414;2022-11-20T08:37:47;54.30;;;30.00;;
3050;SDS011;1535;51.098;6.414;2022-11-20T08:40:14;60.00;;;30.20;;
3050;SDS011;1535;51.098;6.414;2022-11-20T08:42:47;72.83;;;31.43;;
3050;SDS011;1535;51.098;6.414;2022-11-20T08:45:15;57.13;;;30.87;;
3050;SDS011;1535;51.098;6.414;2022-11-20T08:47:43;53.73;;;29.53;;
3050;SDS011;1535;51.098;6.414;2022-11-20T08:50:11;53.33;;;27.07;;
3050;SDS011;1535;51.098;6.414;2022-11-20T08:52:41;61.17;;;30.83;;
3050;SDS011;1535;51.098;6.414;2022-11-20T08:55:09;56.70;;;28.63;;
3050;SDS011;1535;51.098;6.414;2022-11-20T08:57:37;59.03;;;30.50;;
3050;SDS011;1535;51.098;6.414;2022-11-20T09:00:05;52.93;;;28.70;;
3050;SDS011;1535;51.098;6.414;2022-11-20T09:02:33;57.20;;;29.27;;
3050;SDS011;1535;51.098;6.414;2022-11-20T09:05:00;43.10;;;26.17;;
3050;SDS011;1535;51.098;6.414;2022-11-20T09:07:28;51.87;;;27.97;;
3050;SDS011;1535;51.098;6.414;2022-11-20T09:09:57;49.10;;;28.37;;
3050;SDS011;1535;51.098;6.414;2022-11-20T09:12:23;39.90;;;24.70;;
3050;SDS011;1535;51.098;6.414;2022-11-20T09:14:51;44.17;;;26.10;;
3050;SDS011;1535;51.098;6.414;2022-11-20T09:17:17;47.43;;;26.37;;
3050;SDS011;1535;51.098;6.414;2022-11-20T09:19:45;44.03;;;24.73;;
3050;SDS011;1535;51.098;6.414;2022-11-20T09:22:12;38.73;;;22.63;;
3050;SDS011;1535;51.098;6.414;2022-11-20T09:24:39;39.50;;;23.90;;
3050;SDS011;1535;51.098;6.414;2022-11-20T09:27:08;43.80;;;25.87;;
3050;SDS011;1535;51.098;6.414;2022-11-20T09:29:34;38.27;;;24.60;;
3050;SDS011;1535;51.098;6.414;2022-11-20T09:32:01;41.40;;;25.77;;
3050;SDS011;1535;51.098;6.414;2022-11-20T09:34:28;40.87;;;26.73;;
3050;SDS011;1535;51.098;6.414;2022-11-20T09:36:56;40.40;;;26.37;;
3050;SDS011;1535;51.098;6.414;2022-11-20T09:39:23;41.87;;;27.37;;
3050;SDS011;1535;51.098;6.414;2022-11-20T09:41:59;40.40;;;25.50;;
3050;SDS011;1535;51.098;6.414;2022-11-20T09:44:45;35.87;;;25.80;;
3050;SDS011;1535;51.098;6.414;2022-11-20T09:47:20;43.10;;;25.10;;
3050;SDS011;1535;51.098;6.414;2022-11-20T09:50:02;30.43;;;22.80;;
3050;SDS011;1535;51.098;6.414;2022-11-20T09:52:46;39.83;;;25.50;;
3050;SDS011;1535;51.098;6.414;2022-11-20T09:55:21;37.40;;;25.67;;
3050;SDS011;1535;51.098;6.414;2022-11-20T09:57:49;40.50;;;26.33;;
3050;SDS011;1535;51.098;6.414;2022-11-20T10:00:19;37.27;;;28.67;;
3050;SDS011;1535;51.098;6.414;2022-11-20T10:02:48;40.03;;;26.97;;
3050;SDS011;1535;51.098;6.414;2022-11-20T10:05:21;34.57;;;25.50;;
3050;SDS011;1535;51.098;6.414;2022-11-20T10:07:54;30.57;;;24.50;;
3050;SDS011;1535;51.098;6.414;2022-11-20T10:10:33;31.17;;;26.00;;
3050;SDS011;1535;51.098;6.414;2022-11-20T10:13:09;29.80;;;25.07;;
3050;SDS011;1535;51.098;6.414;2022-11-20T10:15:56;31.60;;;25.40;;
3050;SDS011;1535;51.098;6.414;2022-11-20T10:18:39;32.63;;;23.30;;
3050;SDS011;1535;51.098;6.414;2022-11-20T10:21:16;35.10;;;24.57;;
3050;SDS011;1535;51.098;6.414;2022-11-20T10:23:59;31.70;;;24.87;;
3050;SDS011;1535;51.098;6.414;2022-11-20T10:26:42;35.83;;;25.67;;
3050;SDS011;1535;51.098;6.414;2022-11-20T10:29:18;29.27;;;24.90;;
3050;SDS011;1535;51.098;6.414;2022-11-20T10:31:50;36.23;;;25.30;;
3050;SDS011;1535;51.098;6.414;2022-11-20T10:34:22;34.07;;;26.07;;
3050;SDS011;1535;51.098;6.414;2022-11-20T10:36:54;31.87;;;26.23;;
3050;SDS011;1535;51.098;6.414;2022-11-20T10:39:30;40.90;;;26.27;;
3050;SDS011;1535;51.098;6.414;2022-11-20T10:42:01;37.23;;;26.80;;
3050;SDS011;1535;51.098;6.414;2022-11-20T10:44:31;32.13;;;24.60;;
3050;SDS011;1535;51.098;6.414;2022-11-20T10:47:16;47.30;;;32.37;;
3050;SDS011;1535;51.098;6.414;2022-11-20T10:49:45;43.30;;;28.67;;
3050;SDS011;1535;51.098;6.414;2022-11-20T10:52:16;40.43;;;26.33;;
3050;SDS011;1535;51.098;6.414;2022-11-20T10:54:49;32.30;;;26.50;;
3050;SDS011;1535;51.098;6.414;2022-11-20T10:57:29;35.30;;;28.80;;
3050;SDS011;1535;51.098;6.414;2022-11-20T11:00:05;33.60;;;26.30;;
3050;SDS011;1535;51.098;6.414;2022-11-20T11:02:36;35.37;;;27.60;;
3050;SDS011;1535;51.098;6.414;2022-11-20T11:05:14;33.93;;;26.30;;
3050;SDS011;1535;51.098;6.414;2022-11-20T11:07:48;35.00;;;26.13;;
3050;SDS011;1535;51.098;6.414;2022-11-20T11:10:20;37.10;;;26.73;;
3050;SDS011;1535;51.098;6.414;2022-11-20T11:12:50;38.20;;;26.90;;
3050;SDS011;1535;51.098;6.414;2022-11-20T11:15:25;39.43;;;27.40;;
3050;SDS011;1535;51.098;6.414;2022-11-20T11:17:55;30.70;;;26.63;;
3050;SDS011;1535;51.098;6.414;2022-11-20T11:20:22;40.50;;;27.07;;
3050;SDS011;1535;51.098;6.414;2022-11-20T11:22:51;33.80;;;25.90;;
3050;SDS011;1535;51.098;6.414;2022-11-20T11:25:21;29.57;;;25.97;;
3050;SDS011;1535;51.098;6.414;2022-11-20T11:27:54;36.70;;;26.07;;
3050;SDS011;1535;51.098;6.414;2022-11-20T11:30:22;34.50;;;27.83;;
3050;SDS011;1535;51.098;6.414;2022-11-20T11:32:51;33.90;;;27.20;;
3050;SDS011;1535;51.098;6.414;2022-11-20T11:35:31;32.63;;;26.80;;
3050;SDS011;1535;51.098;6.414;2022-11-20T11:38:02;31.13;;;24.70;;
3050;SDS011;1535;51.098;6.414;2022-11-20T11:40:32;33.60;;;26.10;;
3050;SDS011;1535;51.098;6.414;2022-11-20T11:43:02;39.43;;;26.77;;
3050;SDS011;1535;51.098;6.414;2022-11-20T11:45:52;33.00;;;25.20;;
3050;SDS011;1535;51.098;6.414;2022-11-20T11:48:20;41.10;;;25.43;;
3050;SDS011;1535;51.098;6.414;2022-11-20T11:50:48;37.20;;;25.40;;
3050;SDS011;1535;51.098;6.414;2022-11-20T11:53:17;37.93;;;27.10;;
3050;SDS011;1535;51.098;6.414;2022-11-20T11:55:45;35.57;;;26.63;;
3050;SDS011;1535;51.098;6.414;2022-11-20T11:58:17;35.63;;;26.90;;
3050;SDS011;1535;51.098;6.414;2022-11-20T12:01:00;32.90;;;26.43;;
3050;SDS011;1535;51.098;6.414;2022-11-20T12:03:36;38.00;;;26.63;;
3050;SDS011;1535;51.098;6.414;2022-11-20T12:06:08;35.50;;;27.33;;
3050;SDS011;1535;51.098;6.414;2022-11-20T12:08:41;39.87;;;27.40;;
3050;SDS011;1535;51.098;6.414;2022-11-20T12:11:14;30.40;;;25.00;;
3050;SDS011;1535;51.098;6.414;2022-11-20T12:13:48;32.40;;;25.83;;
3050;SDS011;1535;51.098;6.414;2022-11-20T12:16:19;30.87;;;25.53;;
3050;SDS011;1535;51.098;6.414;2022-11-20T12:18:50;30.57;;;25.87;;
3050;SDS011;1535;51.098;6.414;2022-11-20T12:21:20;31.10;;;24.67;;
3050;SDS011;1535;51.098;6.414;2022-11-20T12:23:58;31.63;;;25.17;;
3050;SDS011;1535;51.098;6.414;2022-11-20T12:26:41;40.83;;;27.60;;
3050;SDS011;1535;51.098;6.414;2022-11-20T12:29:18;42.47;;;26.20;;
3050;SDS011;1535;51.098;6.414;2022-11-20T12:32:01;34.53;;;27.03;;
3050;SDS011;1535;51.098;6.414;2022-11-20T12:34:50;33.67;;;28.87;;
3050;SDS011;1535;51.098;6.414;2022-11-20T12:37:27;40.90;;;29.23;;
3050;SDS011;1535;51.098;6.414;2022-11-20T12:40:08;37.80;;;31.10;;
3050;SDS011;1535;51.098;6.414;2022-11-20T12:42:50;43.57;;;32.37;;
3050;SDS011;1535;51.098;6.414;2022-11-20T12:45:48;37.80;;;30.17;;
3050;SDS011;1535;51.098;6.414;2022-11-20T12:51:50;48.43;;;34.43;;
3050;SDS011;1535;51.098;6.414;2022-11-20T12:54:28;48.07;;;33.33;;
3050;SDS011;1535;51.098;6.414;2022-11-20T12:57:21;45.50;;;33.43;;
3050;SDS011;1535;51.098;6.414;2022-11-20T13:00:07;42.03;;;32.43;;
3050;SDS011;1535;51.098;6.414;2022-11-20T13:02:53;48.50;;;30.73;;
3050;SDS011;1535;51.098;6.414;2022-11-20T13:05:36;48.23;;;31.27;;
3050;SDS011;1535;51.098;6.414;2022-11-20T13:08:12;46.60;;;32.83;;
3050;SDS011;1535;51.098;6.414;2022-11-20T13:10:45;48.37;;;36.17;;
3050;SDS011;1535;51.098;6.414;2022-11-20T13:13:18;42.73;;;31.57;;
3050;SDS011;1535;51.098;6.414;2022-11-20T13:15:50;44.53;;;30.10;;
3050;SDS011;1535;51.098;6.414;2022-11-20T13:18:22;46.47;;;33.07;;
3050;SDS011;1535;51.098;6.414;2022-11-20T13:20:50;41.87;;;31.87;;
3050;SDS011;1535;51.098;6.414;2022-11-20T13:23:25;44.73;;;31.20;;
3050;SDS011;1535;51.098;6.414;2022-11-20T13:26:02;44.63;;;30.70;;
3050;SDS011;1535;51.098;6.414;2022-11-20T13:28:30;46.37;;;31.33;;
3050;SDS011;1535;51.098;6.414;2022-11-20T13:30:58;49.07;;;31.53;;
3050;SDS011;1535;51.098;6.414;2022-11-20T13:33:27;47.07;;;30.60;;
3050;SDS011;1535;51.098;6.414;2022-11-20T13:35:57;48.83;;;28.93;;
3050;SDS011;1535;51.098;6.414;2022-11-20T13:38:27;43.63;;;28.80;;
3050;SDS011;1535;51.098;6.414;2022-11-20T13:40:55;39.10;;;26.00;;
3050;SDS011;1535;51.098;6.414;2022-11-20T13:43:27;50.20;;;30.60;;
3050;SDS011;1535;51.098;6.414;2022-11-20T13:46:01;41.67;;;28.13;;
3050;SDS011;1535;51.098;6.414;2022-11-20T13:48:30;40.73;;;28.13;;
3050;SDS011;1535;51.098;6.414;2022-11-20T13:51:02;39.57;;;26.90;;
3050;SDS011;1535;51.098;6.414;2022-11-20T13:53:45;41.10;;;27.67;;
3050;SDS011;1535;51.098;6.414;2022-11-20T13:56:24;41.90;;;26.17;;
3050;SDS011;1535;51.098;6.414;2022-11-20T13:58:58;41.30;;;27.40;;
3050;SDS011;1535;51.098;6.414;2022-11-20T14:01:32;44.77;;;27.57;;
3050;SDS011;1535;51.098;6.414;2022-11-20T14:04:01;36.10;;;27.27;;
3050;SDS011;1535;51.098;6.414;2022-11-20T14:06:39;42.63;;;27.93;;
3050;SDS011;1535;51.098;6.414;2022-11-20T14:09:13;36.77;;;27.20;;
3050;SDS011;1535;51.098;6.414;2022-11-20T14:11:51;34.33;;;25.73;;
3050;SDS011;1535;51.098;6.414;2022-11-20T14:14:19;39.10;;;25.60;;
3050;SDS011;1535;51.098;6.414;2022-11-20T14:16:48;41.80;;;25.73;;
3050;SDS011;1535;51.098;6.414;2022-11-20T14:19:25;44.03;;;31.60;;
3050;SDS011;1535;51.098;6.414;2022-11-20T14:22:06;34.00;;;24.80;;
3050;SDS011;1535;51.098;6.414;2022-11-20T14:24:36;33.90;;;23.40;;
3050;SDS011;1535;51.098;6.414;2022-11-20T14:27:02;31.93;;;25.80;;
3050;SDS011;1535;51.098;6.414;2022-11-20T14:29:33;38.87;;;24.67;;
3050;SDS011;1535;51.098;6.414;2022-11-20T14:32:02;32.23;;;23.93;;
3050;SDS011;1535;51.098;6.414;2022-11-20T14:34:30;26.57;;;22.17;;
3050;SDS011;1535;51.098;6.414;2022-11-20T14:36:59;31.87;;;23.00;;
3050;SDS011;1535;51.098;6.414;2022-11-20T14:39:29;33.20;;;24.97;;
3050;SDS011;1535;51.098;6.414;2022-11-20T14:41:59;33.07;;;24.67;;
3050;SDS011;1535;51.098;6.414;2022-11-20T14:44:27;30.27;;;23.73;;
3050;SDS011;1535;51.098;6.414;2022-11-20T14:46:56;35.47;;;22.30;;
3050;SDS011;1535;51.098;6.414;2022-11-20T14:49:24;32.27;;;23.70;;
3050;SDS011;1535;51.098;6.414;2022-11-20T14:51:58;34.87;;;24.50;;
3050;SDS011;1535;51.098;6.414;2022-11-20T14:54:26;36.60;;;28.47;;
3050;SDS011;1535;51.098;6.414;2022-11-20T14:56:55;46.30;;;31.97;;
3050;SDS011;1535;51.098;6.414;2022-11-20T14:59:25;44.23;;;34.77;;
3050;SDS011;1535;51.098;6.414;2022-11-20T15:01:54;47.00;;;35.37;;
3050;SDS011;1535;51.098;6.414;2022-11-20T15:04:23;47.03;;;34.30;;
3050;SDS011;1535;51.098;6.414;2022-11-20T15:06:51;46.27;;;32.17;;
3050;SDS011;1535;51.098;6.414;2022-11-20T15:09:20;37.90;;;32.53;;
3050;SDS011;1535;51.098;6.414;2022-11-20T15:11:52;36.10;;;32.30;;
3050;SDS011;1535;51.098;6.414;2022-11-20T15:14:21;41.10;;;32.17;;